Time,TemperatureF,DewpointF,PressureIn,WindDirection,WindDirectionDegrees,WindSpeedMPH,WindSpeedGustMPH,Humidity,HourlyPrecipIn,Conditions,Clouds,dailyrainin,SoftwareType,DateUTC
2013-02-15 00:03:00,42.6,40.2,30.56,SE,135,0.0,0.0,91,0.00,,OVC004,0.00,VWS V14.01,2013-02-15 08:03:00,
2013-02-15 00:08:00,42.6,40.2,30.56,SE,135,0.0,0.0,91,0.00,,OVC004,0.00,VWS V14.01,2013-02-15 08:08:00,
2013-02-15 00:13:00,42.6,40.2,30.56,SE,135,0.0,0.0,91,0.00,,OVC004,0.00,VWS V14.01,2013-02-15 08:13:00,
2013-02-15 00:18:00,42.6,40.2,30.56,SE,135,0.0,0.0,91,0.00,,OVC004,0.00,VWS V14.01,2013-02-15 08:18:00,
2013-02-15 00:23:00,42.6,40.2,30.56,SE,135,0.0,0.0,91,0.00,,OVC004,0.00,VWS V14.01,2013-02-15 08:23:00,
2013-02-15 00:28:00,42.6,40.2,30.56,SE,135,0.0,0.0,91,0.00,,OVC004,0.00,VWS V14.01,2013-02-15 08:28:00,
2013-02-15 00:33:00,42.6,40.4,30.56,SE,135,0.0,0.0,92,0.00,,OVC004,0.00,VWS V14.01,2013-02-15 08:33:00,
2013-02-15 00:39:00,42.6,40.4,30.56,SE,135,0.0,0.0,92,0.00,,OVC004,0.00,VWS V14.01,2013-02-15 08:39:00,
2013-02-15 00:44:00,42.8,40.6,30.56,SE,135,0.0,0.0,92,0.00,,OVC004,0.00,VWS V14.01,2013-02-15 08:44:00,
2013-02-15 00:49:00,42.8,40.6,30.56,SE,135,0.0,0.0,92,0.00,,OVC004,0.00,VWS V14.01,2013-02-15 08:49:00,
2013-02-15 00:54:00,42.9,40.7,30.56,SE,135,0.0,0.0,92,0.00,,OVC004,0.00,VWS V14.01,2013-02-15 08:54:00,
2013-02-15 00:59:00,42.8,40.6,30.56,SE,135,0.0,0.0,92,0.00,,OVC004,0.00,VWS V14.01,2013-02-15 08:59:00,
2013-02-15 01:04:00,42.9,40.7,30.56,SE,135,0.0,0.0,92,0.00,,OVC004,0.00,VWS V14.01,2013-02-15 09:04:00,
2013-02-15 01:09:00,42.9,40.7,30.56,SE,135,0.0,0.0,92,0.00,,OVC004,0.00,VWS V14.01,2013-02-15 09:09:00,
2013-02-15 01:14:00,42.8,40.6,30.56,SSE,158,0.0,0.0,92,0.00,,OVC004,0.00,VWS V14.01,2013-02-15 09:14:00,
2013-02-15 01:19:00,42.8,40.6,30.56,SSE,158,0.0,0.0,92,0.00,,OVC004,0.00,VWS V14.01,2013-02-15 09:19:00,
2013-02-15 01:24:00,42.8,40.6,30.55,SSE,158,0.0,0.0,92,0.00,,OVC004,0.00,VWS V14.01,2013-02-15 09:24:00,
2013-02-15 01:29:00,42.8,40.6,30.55,SSE,158,0.0,0.0,92,0.00,,OVC004,0.00,VWS V14.01,2013-02-15 09:29:00,
2013-02-15 01:34:00,42.8,40.6,30.55,SSE,158,0.0,0.0,92,0.00,,OVC004,0.00,VWS V14.01,2013-02-15 09:34:00,
2013-02-15 01:39:00,42.6,40.4,30.55,SSE,158,0.0,0.0,92,0.00,,OVC004,0.00,VWS V14.01,2013-02-15 09:39:00,
2013-02-15 01:44:00,42.8,40.6,30.55,SSE,158,0.0,0.0,92,0.00,,OVC004,0.00,VWS V14.01,2013-02-15 09:44:00,
2013-02-15 01:49:00,42.6,40.4,30.55,SSE,158,0.0,0.0,92,0.00,,OVC004,0.00,VWS V14.01,2013-02-15 09:49:00,
2013-02-15 01:54:00,42.6,40.4,30.55,SSE,158,0.0,0.0,92,0.00,,OVC004,0.00,VWS V14.01,2013-02-15 09:54:00,
2013-02-15 01:59:00,42.6,40.4,30.55,SSE,158,0.0,0.0,92,0.00,,OVC004,0.00,VWS V14.01,2013-02-15 09:59:00,
2013-02-15 02:04:00,42.6,40.4,30.55,SSE,158,0.0,0.0,92,0.00,,OVC010,0.00,VWS V14.01,2013-02-15 10:04:00,
2013-02-15 02:09:00,42.6,40.4,30.55,SSE,158,0.0,0.0,92,0.00,,OVC010,0.00,VWS V14.01,2013-02-15 10:09:00,
2013-02-15 02:14:00,42.6,40.4,30.55,SSE,158,0.0,0.0,92,0.00,,OVC010,0.00,VWS V14.01,2013-02-15 10:14:00,
2013-02-15 02:19:00,42.6,40.4,30.55,SSE,158,0.0,0.0,92,0.00,,OVC010,0.00,VWS V14.01,2013-02-15 10:19:00,
2013-02-15 02:24:00,42.6,40.4,30.55,SSE,158,0.0,0.0,92,0.00,,OVC010,0.00,VWS V14.01,2013-02-15 10:24:00,
2013-02-15 02:29:00,42.6,40.4,30.55,SSE,158,0.0,0.0,92,0.00,,OVC010,0.00,VWS V14.01,2013-02-15 10:29:00,
2013-02-15 02:34:00,42.6,40.4,30.55,SSE,158,0.0,0.0,92,0.00,,OVC010,0.00,VWS V14.01,2013-02-15 10:34:00,
2013-02-15 02:39:00,42.6,40.4,30.55,SSE,158,0.0,0.0,92,0.00,,OVC010,0.00,VWS V14.01,2013-02-15 10:39:00,
2013-02-15 02:44:00,42.6,40.4,30.55,SSE,158,0.0,0.0,92,0.00,,OVC010,0.00,VWS V14.01,2013-02-15 10:44:00,
2013-02-15 02:49:00,42.6,40.4,30.55,SSE,158,0.0,0.0,92,0.00,,OVC010,0.00,VWS V14.01,2013-02-15 10:49:00,
2013-02-15 02:54:00,42.6,40.4,30.54,SSE,158,0.0,0.0,92,0.00,,OVC010,0.00,VWS V14.01,2013-02-15 10:54:00,
2013-02-15 03:00:00,42.6,40.4,30.54,SSE,158,0.0,0.0,92,0.00,,OVC010,0.00,VWS V14.01,2013-02-15 11:00:00,
2013-02-15 03:05:00,42.6,40.4,30.54,SSE,158,0.0,0.0,92,0.00,,OVC010,0.00,VWS V14.01,2013-02-15 11:05:00,
2013-02-15 03:10:00,42.6,40.4,30.54,SSE,158,0.0,0.0,92,0.00,,OVC010,0.00,VWS V14.01,2013-02-15 11:10:00,
2013-02-15 03:15:00,42.4,40.2,30.53,SSE,158,0.0,0.0,92,0.00,,OVC010,0.00,VWS V14.01,2013-02-15 11:15:00,
2013-02-15 03:20:00,42.4,40.2,30.53,SSE,158,0.0,0.0,92,0.00,,OVC010,0.00,VWS V14.01,2013-02-15 11:20:00,
2013-02-15 03:25:00,42.4,40.2,30.52,SSE,158,0.0,0.0,92,0.00,,OVC010,0.00,VWS V14.01,2013-02-15 11:25:00,
2013-02-15 03:30:00,42.4,40.2,30.52,SSE,158,0.0,0.0,92,0.00,,OVC010,0.00,VWS V14.01,2013-02-15 11:30:00,
2013-02-15 03:35:00,42.4,40.2,30.52,SSE,158,0.0,0.0,92,0.00,,OVC010,0.00,VWS V14.01,2013-02-15 11:35:00,
2013-02-15 03:40:00,42.4,40.2,30.52,SSE,158,0.0,0.0,92,0.00,,OVC010,0.00,VWS V14.01,2013-02-15 11:40:00,
2013-02-15 03:45:00,42.2,40.0,30.52,SSE,158,0.0,0.0,92,0.00,,OVC010,0.00,VWS V14.01,2013-02-15 11:45:00,
2013-02-15 03:50:00,42.2,40.0,30.52,SSE,158,0.0,0.0,92,0.00,,OVC010,0.00,VWS V14.01,2013-02-15 11:50:00,
2013-02-15 03:55:00,42.0,39.8,30.52,SSE,158,0.0,0.0,92,0.00,,OVC010,0.00,VWS V14.01,2013-02-15 11:55:00,
2013-02-15 04:00:00,42.0,39.8,30.51,SSE,158,0.0,0.0,92,0.00,,OVC010,0.00,VWS V14.01,2013-02-15 12:00:00,
2013-02-15 04:05:00,42.0,39.8,30.51,SSE,158,0.0,0.0,92,0.00,,OVC012,0.00,VWS V14.01,2013-02-15 12:05:00,
2013-02-15 04:10:00,42.0,39.8,30.52,SSE,158,0.0,0.0,92,0.00,,OVC012,0.00,VWS V14.01,2013-02-15 12:10:00,
2013-02-15 04:15:00,42.0,39.8,30.52,SSE,158,0.0,0.0,92,0.00,,OVC012,0.00,VWS V14.01,2013-02-15 12:15:00,
2013-02-15 04:20:00,42.0,39.8,30.51,SSE,158,0.0,0.0,92,0.00,,OVC012,0.00,VWS V14.01,2013-02-15 12:20:00,
2013-02-15 04:25:00,42.0,39.8,30.51,SSE,158,0.0,0.0,92,0.00,,OVC012,0.00,VWS V14.01,2013-02-15 12:25:00,
2013-02-15 04:30:00,42.0,39.8,30.51,SSE,158,0.0,0.0,92,0.00,,OVC012,0.00,VWS V14.01,2013-02-15 12:30:00,
2013-02-15 04:35:00,42.0,39.8,30.51,SSE,158,0.0,0.0,92,0.00,,OVC012,0.00,VWS V14.01,2013-02-15 12:35:00,
2013-02-15 04:40:00,42.0,39.8,30.51,SSE,158,0.0,0.0,92,0.00,,OVC012,0.00,VWS V14.01,2013-02-15 12:40:00,
2013-02-15 04:45:00,41.9,39.8,30.50,SSE,158,0.0,0.0,92,0.00,,OVC012,0.00,VWS V14.01,2013-02-15 12:45:00,
2013-02-15 04:50:00,41.9,39.8,30.51,SSE,158,0.0,0.0,92,0.00,,OVC012,0.00,VWS V14.01,2013-02-15 12:50:00,
2013-02-15 04:55:00,41.9,39.8,30.51,SSE,158,0.0,0.0,92,0.00,,OVC012,0.00,VWS V14.01,2013-02-15 12:55:00,
2013-02-15 05:00:00,41.7,39.5,30.50,SSE,158,0.0,0.0,92,0.00,,OVC012,0.00,VWS V14.01,2013-02-15 13:00:00,
2013-02-15 05:05:00,41.5,39.3,30.50,SSE,158,0.0,0.0,92,0.00,,OVC012,0.00,VWS V14.01,2013-02-15 13:05:00,
2013-02-15 05:10:00,41.5,39.3,30.50,SSE,158,0.0,0.0,92,0.00,,OVC012,0.00,VWS V14.01,2013-02-15 13:10:00,
2013-02-15 05:15:00,41.5,39.3,30.50,SSE,158,0.0,0.0,92,0.00,,OVC012,0.00,VWS V14.01,2013-02-15 13:15:00,
2013-02-15 05:20:00,41.3,39.2,30.50,SSE,158,0.0,0.0,92,0.00,,OVC012,0.00,VWS V14.01,2013-02-15 13:20:00,
2013-02-15 05:25:00,41.3,39.2,30.50,SSE,158,0.0,0.0,92,0.00,,OVC012,0.00,VWS V14.01,2013-02-15 13:25:00,
2013-02-15 05:30:00,41.1,39.0,30.50,SSE,158,0.0,0.0,92,0.00,,OVC012,0.00,VWS V14.01,2013-02-15 13:30:00,
2013-02-15 05:35:00,41.1,39.0,30.50,SSE,158,0.0,0.0,92,0.00,,OVC012,0.00,VWS V14.01,2013-02-15 13:35:00,
2013-02-15 05:40:00,41.1,39.0,30.49,SSE,158,0.0,0.0,92,0.00,,OVC012,0.00,VWS V14.01,2013-02-15 13:40:00,
2013-02-15 05:45:00,41.1,39.0,30.49,SSE,158,0.0,0.0,92,0.00,,OVC012,0.00,VWS V14.01,2013-02-15 13:45:00,
2013-02-15 05:50:00,41.1,39.0,30.49,SSE,158,0.0,0.0,92,0.00,,OVC012,0.00,VWS V14.01,2013-02-15 13:50:00,
2013-02-15 05:55:00,41.1,39.0,30.49,SSE,158,0.0,0.0,92,0.00,,OVC012,0.00,VWS V14.01,2013-02-15 13:55:00,
2013-02-15 06:00:00,41.1,39.0,30.49,SSE,158,0.0,0.0,92,0.00,,OVC008,0.00,VWS V14.01,2013-02-15 14:00:00,
2013-02-15 06:05:00,41.3,39.2,30.49,SSE,158,0.0,0.0,92,0.00,,OVC008,0.00,VWS V14.01,2013-02-15 14:05:00,
2013-02-15 06:10:00,41.3,39.2,30.49,SSE,158,0.0,0.0,92,0.00,,OVC008,0.00,VWS V14.01,2013-02-15 14:10:00,
2013-02-15 06:15:00,41.3,39.2,30.49,SSE,158,0.0,0.0,92,0.00,,OVC008,0.00,VWS V14.01,2013-02-15 14:15:00,
2013-02-15 06:20:00,41.5,39.3,30.48,SSE,158,0.0,0.0,92,0.00,,OVC008,0.00,VWS V14.01,2013-02-15 14:20:00,
2013-02-15 06:25:00,41.5,39.3,30.48,SSE,158,0.0,0.0,92,0.00,,OVC008,0.00,VWS V14.01,2013-02-15 14:25:00,
2013-02-15 06:30:00,41.5,39.3,30.49,SSE,158,0.0,0.0,92,0.00,,OVC008,0.00,VWS V14.01,2013-02-15 14:30:00,
2013-02-15 06:35:00,41.5,39.3,30.48,SSE,158,0.0,0.0,92,0.00,,OVC008,0.00,VWS V14.01,2013-02-15 14:35:00,
2013-02-15 06:40:00,41.7,39.5,30.48,SSE,158,0.0,0.0,92,0.00,,OVC008,0.00,VWS V14.01,2013-02-15 14:40:00,
2013-02-15 06:45:00,41.7,39.5,30.48,SSE,158,0.0,0.0,92,0.00,,OVC008,0.00,VWS V14.01,2013-02-15 14:45:00,
2013-02-15 06:50:00,41.7,39.5,30.48,SSE,158,0.0,0.0,92,0.00,,OVC008,0.00,VWS V14.01,2013-02-15 14:50:00,
2013-02-15 06:55:00,41.9,39.8,30.48,SSE,158,0.0,0.0,92,0.00,,OVC008,0.00,VWS V14.01,2013-02-15 14:55:00,
2013-02-15 07:00:00,41.9,39.8,30.48,SSE,158,0.0,0.0,92,0.00,,OVC008,0.00,VWS V14.01,2013-02-15 15:00:00,
2013-02-15 07:05:00,42.0,39.8,30.48,SSE,158,0.0,0.0,92,0.00,,OVC008,0.00,VWS V14.01,2013-02-15 15:05:00,
2013-02-15 07:10:00,42.0,39.8,30.48,SSE,158,0.0,0.0,92,0.00,,OVC008,0.00,VWS V14.01,2013-02-15 15:10:00,
2013-02-15 07:15:00,42.0,39.8,30.47,SSE,158,0.0,0.0,92,0.00,,OVC008,0.00,VWS V14.01,2013-02-15 15:15:00,
2013-02-15 07:20:00,42.0,39.8,30.47,SSE,158,0.0,0.0,92,0.00,,OVC008,0.00,VWS V14.01,2013-02-15 15:20:00,
2013-02-15 07:25:00,42.2,40.0,30.48,SSE,158,0.0,0.0,92,0.00,,OVC008,0.00,VWS V14.01,2013-02-15 15:25:00,
2013-02-15 07:30:00,42.4,40.2,30.48,SSE,158,0.0,0.0,92,0.00,,OVC008,0.00,VWS V14.01,2013-02-15 15:30:00,
2013-02-15 07:35:00,42.4,40.2,30.48,East,90,0.0,0.0,92,0.00,,OVC008,0.00,VWS V14.01,2013-02-15 15:35:00,
2013-02-15 07:40:00,42.4,40.2,30.47,East,90,0.0,0.0,92,0.00,,OVC008,0.00,VWS V14.01,2013-02-15 15:40:00,
2013-02-15 07:45:00,42.6,40.4,30.48,East,90,0.0,0.0,92,0.00,,OVC008,0.00,VWS V14.01,2013-02-15 15:45:00,
2013-02-15 07:50:00,42.6,40.4,30.48,ENE,68,0.0,0.0,92,0.00,,OVC008,0.00,VWS V14.01,2013-02-15 15:50:00,
2013-02-15 07:55:00,42.6,40.4,30.48,East,90,0.0,0.0,92,0.00,,OVC008,0.00,VWS V14.01,2013-02-15 15:55:00,
2013-02-15 08:00:00,42.6,40.4,30.48,East,90,0.0,0.0,92,0.00,,OVC008,0.00,VWS V14.01,2013-02-15 16:00:00,
2013-02-15 08:05:00,42.6,40.4,30.48,East,90,0.0,0.0,92,0.00,,OVC002,0.00,VWS V14.01,2013-02-15 16:05:00,
2013-02-15 08:10:00,42.6,40.4,30.48,NNE,22,0.0,0.0,92,0.00,,OVC002,0.00,VWS V14.01,2013-02-15 16:10:00,
2013-02-15 08:15:00,42.8,40.6,30.48,NNE,22,0.0,0.0,92,0.00,,OVC002,0.00,VWS V14.01,2013-02-15 16:15:00,
2013-02-15 08:20:00,42.6,40.4,30.48,NNE,22,0.0,0.0,92,0.00,,OVC002,0.00,VWS V14.01,2013-02-15 16:20:00,
2013-02-15 08:25:00,42.9,40.7,30.48,NNE,22,0.0,0.0,92,0.00,,OVC002,0.00,VWS V14.01,2013-02-15 16:25:00,
2013-02-15 08:30:00,42.9,40.7,30.48,NNE,22,0.0,0.0,92,0.00,,OVC002,0.00,VWS V14.01,2013-02-15 16:30:00,
2013-02-15 08:35:00,43.1,40.9,30.48,NNE,22,0.0,0.0,92,0.00,,OVC002,0.00,VWS V14.01,2013-02-15 16:35:00,
2013-02-15 08:40:00,43.1,40.9,30.47,NNE,22,0.0,0.0,92,0.00,,OVC002,0.00,VWS V14.01,2013-02-15 16:40:00,
2013-02-15 08:45:00,43.3,41.1,30.47,NNW,338,0.0,0.0,92,0.00,,OVC002,0.00,VWS V14.01,2013-02-15 16:45:00,
2013-02-15 08:50:00,43.3,41.1,30.47,NNW,338,0.0,0.0,92,0.00,,OVC002,0.00,VWS V14.01,2013-02-15 16:50:00,
2013-02-15 08:55:00,43.3,41.1,30.47,North,0,0.0,0.0,92,0.00,,OVC002,0.00,VWS V14.01,2013-02-15 16:55:00,
2013-02-15 09:00:00,43.5,41.3,30.47,North,0,0.0,0.0,92,0.00,,OVC002,0.00,VWS V14.01,2013-02-15 17:00:00,
2013-02-15 09:05:00,43.5,41.3,30.47,East,90,0.0,0.0,92,0.00,,OVC002,0.00,VWS V14.01,2013-02-15 17:05:00,
2013-02-15 09:10:00,43.7,41.5,30.47,ESE,112,0.0,0.0,92,0.00,,OVC002,0.00,VWS V14.01,2013-02-15 17:10:00,
2013-02-15 09:15:00,43.8,41.6,30.47,East,90,0.0,0.0,92,0.00,,OVC002,0.00,VWS V14.01,2013-02-15 17:15:00,
2013-02-15 09:20:00,44.0,41.8,30.47,East,90,0.0,0.0,92,0.00,,OVC002,0.00,VWS V14.01,2013-02-15 17:20:00,
2013-02-15 09:25:00,44.4,42.2,30.47,ENE,68,0.0,0.0,92,0.00,,OVC002,0.00,VWS V14.01,2013-02-15 17:25:00,
2013-02-15 09:30:00,44.9,42.7,30.47,ENE,68,0.0,0.0,92,0.00,,OVC002,0.00,VWS V14.01,2013-02-15 17:30:00,
2013-02-15 09:35:00,45.3,43.1,30.46,NE,45,0.0,0.0,92,0.00,,OVC002,0.00,VWS V14.01,2013-02-15 17:35:00,
2013-02-15 09:40:00,45.6,43.7,30.46,NE,45,0.0,0.0,93,0.00,,OVC002,0.00,VWS V14.01,2013-02-15 17:40:00,
2013-02-15 09:45:00,46.0,43.8,30.46,NNE,22,0.0,0.0,92,0.00,,OVC002,0.00,VWS V14.01,2013-02-15 17:45:00,
2013-02-15 09:50:00,46.0,43.8,30.46,NNE,22,0.0,0.0,92,0.00,,OVC002,0.00,VWS V14.01,2013-02-15 17:50:00,
2013-02-15 09:55:00,46.2,44.0,30.46,NNE,22,0.0,0.0,92,0.00,,OVC002,0.00,VWS V14.01,2013-02-15 17:55:00,
2013-02-15 10:00:00,46.2,43.7,30.46,NE,45,0.0,0.0,91,0.00,,OVC006,0.00,VWS V14.01,2013-02-15 18:00:00,
2013-02-15 10:05:00,46.0,43.5,30.46,NNE,22,0.0,0.0,91,0.00,,OVC006,0.00,VWS V14.01,2013-02-15 18:05:00,
2013-02-15 10:10:00,46.0,43.5,30.46,NNE,22,0.0,0.0,91,0.00,,OVC006,0.00,VWS V14.01,2013-02-15 18:10:00,
2013-02-15 10:15:00,46.0,43.5,30.46,NNE,22,0.0,0.0,91,0.00,,OVC006,0.00,VWS V14.01,2013-02-15 18:15:00,
2013-02-15 10:20:00,46.2,43.7,30.46,NNE,22,0.0,0.0,91,0.00,,OVC006,0.00,VWS V14.01,2013-02-15 18:20:00,
2013-02-15 10:25:00,46.2,43.7,30.46,NE,45,0.0,0.0,91,0.00,,OVC006,0.00,VWS V14.01,2013-02-15 18:25:00,
2013-02-15 10:30:00,46.4,43.6,30.46,NE,45,0.0,0.0,90,0.00,,OVC006,0.00,VWS V14.01,2013-02-15 18:30:00,
2013-02-15 10:35:00,46.7,43.9,30.45,NE,45,0.0,0.0,90,0.00,,OVC006,0.00,VWS V14.01,2013-02-15 18:35:00,
2013-02-15 10:40:00,47.1,44.3,30.45,NE,45,0.0,0.0,90,0.00,,OVC006,0.00,VWS V14.01,2013-02-15 18:40:00,
2013-02-15 10:45:00,47.1,44.3,30.45,SSE,158,0.0,0.0,90,0.00,,OVC006,0.00,VWS V14.01,2013-02-15 18:45:00,
2013-02-15 10:50:00,47.4,44.6,30.45,SE,135,0.0,0.0,90,0.00,,OVC006,0.00,VWS V14.01,2013-02-15 18:50:00,
2013-02-15 10:55:00,47.6,44.5,30.45,NE,45,0.0,0.0,89,0.00,,OVC006,0.00,VWS V14.01,2013-02-15 18:55:00,
2013-02-15 11:00:00,48.0,44.9,30.44,North,0,0.0,0.0,89,0.00,,OVC006,0.00,VWS V14.01,2013-02-15 19:00:00,
2013-02-15 11:05:00,47.8,44.7,30.44,NE,45,0.0,0.0,89,0.00,,OVC006,0.00,VWS V14.01,2013-02-15 19:05:00,
2013-02-15 11:10:00,47.8,44.4,30.43,NE,45,0.0,0.0,88,0.00,,OVC006,0.00,VWS V14.01,2013-02-15 19:10:00,
2013-02-15 11:15:00,47.8,44.4,30.44,NNE,22,0.0,0.0,88,0.00,,OVC006,0.00,VWS V14.01,2013-02-15 19:15:00,
2013-02-15 11:20:00,48.0,44.6,30.44,NNE,22,0.0,0.0,88,0.00,,OVC006,0.00,VWS V14.01,2013-02-15 19:20:00,
2013-02-15 11:25:00,48.0,44.6,30.43,NE,45,0.0,0.0,88,0.00,,OVC006,0.00,VWS V14.01,2013-02-15 19:25:00,
2013-02-15 11:30:00,48.3,44.6,30.43,NNE,22,0.0,1.1,87,0.00,,OVC006,0.00,VWS V14.01,2013-02-15 19:30:00,
2013-02-15 11:35:00,48.2,44.5,30.44,NNE,22,0.0,0.0,87,0.00,,OVC006,0.00,VWS V14.01,2013-02-15 19:35:00,
2013-02-15 11:40:00,48.3,44.6,30.43,NE,45,0.0,0.0,87,0.00,,OVC006,0.00,VWS V14.01,2013-02-15 19:40:00,
2013-02-15 11:45:00,48.7,44.7,30.42,NW,315,0.0,0.0,86,0.00,,OVC006,0.00,VWS V14.01,2013-02-15 19:45:00,
2013-02-15 11:50:00,49.2,45.2,30.42,NE,45,0.0,0.0,86,0.00,,OVC006,0.00,VWS V14.01,2013-02-15 19:50:00,
2013-02-15 11:55:00,49.6,45.6,30.42,NNE,22,0.0,0.0,86,0.00,,OVC006,0.00,VWS V14.01,2013-02-15 19:55:00,
2013-02-15 12:00:00,50.3,46.0,30.42,NNE,22,0.0,0.0,85,0.00,,OVC006,0.00,VWS V14.01,2013-02-15 20:00:00,
2013-02-15 12:05:00,51.0,46.3,30.41,NNE,22,0.0,0.0,84,0.00,,SCT014,0.00,VWS V14.01,2013-02-15 20:05:00,
2013-02-15 12:10:00,51.6,46.3,30.40,South,180,0.0,0.0,82,0.00,,SCT014,0.00,VWS V14.01,2013-02-15 20:10:00,
2013-02-15 12:15:00,52.3,46.7,30.40,NNE,22,0.0,0.4,81,0.00,,SCT014,0.00,VWS V14.01,2013-02-15 20:15:00,
2013-02-15 12:20:00,52.8,46.8,30.40,NNE,22,0.0,0.0,80,0.00,,SCT014,0.00,VWS V14.01,2013-02-15 20:20:00,
2013-02-15 12:25:00,53.2,46.9,30.40,NNE,22,0.0,0.0,79,0.00,,SCT014,0.00,VWS V14.01,2013-02-15 20:25:00,
2013-02-15 12:30:00,53.4,46.7,30.39,NNE,22,0.0,0.0,78,0.00,,SCT014,0.00,VWS V14.01,2013-02-15 20:30:00,
2013-02-15 12:35:00,53.7,47.0,30.39,NE,45,0.0,0.0,78,0.00,,SCT014,0.00,VWS V14.01,2013-02-15 20:35:00,
2013-02-15 12:40:00,54.1,47.4,30.39,NNE,22,0.0,0.0,78,0.00,,SCT014,0.00,VWS V14.01,2013-02-15 20:40:00,
2013-02-15 12:45:00,54.5,47.5,30.38,NE,45,0.0,0.0,77,0.00,,SCT014,0.00,VWS V14.01,2013-02-15 20:45:00,
2013-02-15 12:50:00,54.3,47.2,30.38,NNE,22,0.0,0.0,77,0.00,,SCT014,0.00,VWS V14.01,2013-02-15 20:50:00,
2013-02-15 12:55:00,54.3,47.2,30.38,NNE,22,0.0,0.0,77,0.00,,SCT014,0.00,VWS V14.01,2013-02-15 20:55:00,
2013-02-15 13:00:00,54.3,47.2,30.38,ENE,68,0.0,0.0,77,0.00,,SCT014,0.00,VWS V14.01,2013-02-15 21:00:00,
2013-02-15 13:05:00,54.5,47.5,30.37,ESE,112,0.0,0.0,77,0.00,,SCT014,0.00,VWS V14.01,2013-02-15 21:05:00,
2013-02-15 13:10:00,54.6,47.2,30.37,ENE,68,0.0,0.0,76,0.00,,SCT014,0.00,VWS V14.01,2013-02-15 21:10:00,
2013-02-15 13:15:00,55.2,47.8,30.37,NE,45,0.0,0.0,76,0.00,,SCT014,0.00,VWS V14.01,2013-02-15 21:15:00,
2013-02-15 13:20:00,55.2,47.8,30.37,NE,45,0.0,0.0,76,0.00,,SCT014,0.00,VWS V14.01,2013-02-15 21:20:00,
2013-02-15 13:25:00,55.2,47.4,30.37,SE,135,0.0,0.0,75,0.00,,SCT014,0.00,VWS V14.01,2013-02-15 21:25:00,
2013-02-15 13:30:00,55.2,47.1,30.36,ESE,112,0.0,0.0,74,0.00,,SCT014,0.00,VWS V14.01,2013-02-15 21:30:00,
2013-02-15 13:35:00,55.5,47.7,30.36,ENE,68,0.0,0.0,75,0.00,,SCT014,0.00,VWS V14.01,2013-02-15 21:35:00,
2013-02-15 13:40:00,60.0,50.6,30.36,NE,45,0.0,0.0,71,0.00,,SCT014,0.00,VWS V14.01,2013-02-15 21:40:00,
2013-02-15 13:45:00,68.1,54.2,30.36,NE,45,0.0,0.0,61,0.00,,SCT014,0.00,VWS V14.01,2013-02-15 21:45:00,
2013-02-15 13:50:00,69.6,53.7,30.35,NE,45,0.0,0.0,57,0.00,,SCT014,0.00,VWS V14.01,2013-02-15 21:50:00,
2013-02-15 13:55:00,66.5,50.8,30.35,NNE,22,0.0,0.0,57,0.00,,SCT014,0.00,VWS V14.01,2013-02-15 21:55:00,
2013-02-15 14:00:00,61.5,47.9,30.35,NE,45,0.0,0.0,61,0.00,,CLR,0.00,VWS V14.01,2013-02-15 22:00:00,
2013-02-15 14:05:00,58.8,46.2,30.34,NE,45,0.0,0.0,63,0.00,,CLR,0.00,VWS V14.01,2013-02-15 22:05:00,
2013-02-15 14:10:00,57.0,45.8,30.33,NE,45,0.0,0.0,66,0.00,,CLR,0.00,VWS V14.01,2013-02-15 22:10:00,
2013-02-15 14:15:00,55.0,45.0,30.33,NE,45,0.0,0.0,69,0.00,,CLR,0.00,VWS V14.01,2013-02-15 22:15:00,
2013-02-15 14:20:00,54.3,44.7,30.33,East,90,0.0,0.0,70,0.00,,CLR,0.00,VWS V14.01,2013-02-15 22:20:00,
2013-02-15 14:25:00,53.7,44.5,30.33,NNE,22,0.0,0.0,71,0.00,,CLR,0.00,VWS V14.01,2013-02-15 22:25:00,
2013-02-15 14:30:00,52.8,44.0,30.33,SE,135,0.0,0.0,72,0.00,,CLR,0.00,VWS V14.01,2013-02-15 22:30:00,
2013-02-15 14:35:00,52.5,44.1,30.32,NE,45,0.0,0.0,73,0.00,,CLR,0.00,VWS V14.01,2013-02-15 22:35:00,
2013-02-15 14:40:00,52.1,43.7,30.32,NNE,22,0.8,0.8,73,0.00,,CLR,0.00,VWS V14.01,2013-02-15 22:40:00,
2013-02-15 14:45:00,51.6,43.6,30.32,WNW,292,0.0,0.0,74,0.00,,CLR,0.00,VWS V14.01,2013-02-15 22:45:00,
2013-02-15 14:50:00,51.4,43.8,30.32,WNW,292,0.0,0.0,75,0.00,,CLR,0.00,VWS V14.01,2013-02-15 22:50:00,
2013-02-15 14:55:00,51.4,43.8,30.31,NE,45,0.0,0.0,75,0.00,,CLR,0.00,VWS V14.01,2013-02-15 22:55:00,
2013-02-15 15:00:00,51.0,43.4,30.31,SE,135,0.0,0.0,75,0.00,,CLR,0.00,VWS V14.01,2013-02-15 23:00:00,
2013-02-15 15:05:00,50.7,43.4,30.31,ESE,112,0.0,0.0,76,0.00,,CLR,0.00,VWS V14.01,2013-02-15 23:05:00,
2013-02-15 15:10:00,50.7,43.4,30.31,SE,135,0.0,0.0,76,0.00,,CLR,0.00,VWS V14.01,2013-02-15 23:10:00,
2013-02-15 15:15:00,50.5,43.2,30.31,NE,45,0.0,0.0,76,0.00,,CLR,0.00,VWS V14.01,2013-02-15 23:15:00,
2013-02-15 15:20:00,50.5,43.6,30.31,NE,45,0.0,0.0,77,0.00,,CLR,0.00,VWS V14.01,2013-02-15 23:20:00,
2013-02-15 15:25:00,50.3,43.4,30.30,NE,45,0.0,0.0,77,0.00,,CLR,0.00,VWS V14.01,2013-02-15 23:25:00,
2013-02-15 15:30:00,50.0,43.1,30.31,NE,45,0.0,0.0,77,0.00,,CLR,0.00,VWS V14.01,2013-02-15 23:30:00,
2013-02-15 15:35:00,49.8,43.2,30.30,NE,45,0.0,0.0,78,0.00,,CLR,0.00,VWS V14.01,2013-02-15 23:35:00,
2013-02-15 15:40:00,49.8,43.2,30.30,NE,45,0.0,0.0,78,0.00,,CLR,0.00,VWS V14.01,2013-02-15 23:40:00,
2013-02-15 15:45:00,49.8,43.2,30.29,NE,45,0.0,0.0,78,0.00,,CLR,0.00,VWS V14.01,2013-02-15 23:45:00,
2013-02-15 15:50:00,49.8,43.2,30.29,NE,45,0.0,0.0,78,0.00,,CLR,0.00,VWS V14.01,2013-02-15 23:50:00,
2013-02-15 15:55:00,49.8,43.2,30.29,NE,45,0.0,0.0,78,0.00,,CLR,0.00,VWS V14.01,2013-02-15 23:55:00,
2013-02-15 16:00:00,50.3,43.7,30.29,NE,45,0.0,0.0,78,0.00,,CLR,0.00,VWS V14.01,2013-02-16 00:00:00,
2013-02-15 16:05:00,50.1,43.5,30.29,NE,45,0.0,0.0,78,0.00,,CLR,0.00,VWS V14.01,2013-02-16 00:05:00,
2013-02-15 16:10:00,49.8,43.2,30.29,NE,45,0.0,0.0,78,0.00,,CLR,0.00,VWS V14.01,2013-02-16 00:10:00,
2013-02-15 16:15:00,49.6,43.0,30.29,NE,45,0.0,0.0,78,0.00,,CLR,0.00,VWS V14.01,2013-02-16 00:15:00,
2013-02-15 16:20:00,49.4,42.8,30.29,NE,45,0.0,0.0,78,0.00,,CLR,0.00,VWS V14.01,2013-02-16 00:20:00,
2013-02-15 16:25:00,49.2,42.6,30.28,NE,45,0.0,0.0,78,0.00,,CLR,0.00,VWS V14.01,2013-02-16 00:25:00,
2013-02-15 16:30:00,49.1,42.9,30.28,NNE,22,0.0,0.0,79,0.00,,CLR,0.00,VWS V14.01,2013-02-16 00:30:00,
2013-02-15 16:35:00,48.9,42.7,30.28,NNE,22,0.0,0.0,79,0.00,,CLR,0.00,VWS V14.01,2013-02-16 00:35:00,
2013-02-15 16:40:00,48.7,42.5,30.28,NNE,22,0.0,0.0,79,0.00,,CLR,0.00,VWS V14.01,2013-02-16 00:40:00,
2013-02-15 16:45:00,48.7,42.5,30.28,NNE,22,0.0,0.0,79,0.00,,CLR,0.00,VWS V14.01,2013-02-16 00:45:00,
2013-02-15 16:50:00,48.3,42.4,30.28,NNE,22,0.0,0.0,80,0.00,,CLR,0.00,VWS V14.01,2013-02-16 00:50:00,
2013-02-15 16:55:00,48.0,42.1,30.28,NNE,22,0.0,0.0,80,0.00,,CLR,0.00,VWS V14.01,2013-02-16 00:55:00,
2013-02-15 17:00:00,48.0,42.5,30.28,NNE,22,0.0,0.0,81,0.00,,CLR,0.00,VWS V14.01,2013-02-16 01:00:00,
2013-02-15 17:05:00,47.8,42.3,30.27,NNE,22,0.0,0.0,81,0.00,,CLR,0.00,VWS V14.01,2013-02-16 01:05:00,
2013-02-15 17:10:00,47.4,41.9,30.27,NNE,22,0.0,0.0,81,0.00,,CLR,0.00,VWS V14.01,2013-02-16 01:10:00,
2013-02-15 17:15:00,47.3,41.8,30.27,NNE,22,0.0,0.0,81,0.00,,CLR,0.00,VWS V14.01,2013-02-16 01:15:00,
2013-02-15 17:20:00,47.1,41.6,30.27,NNE,22,0.0,0.0,81,0.00,,CLR,0.00,VWS V14.01,2013-02-16 01:20:00,
2013-02-15 17:25:00,46.9,41.7,30.27,NNE,22,0.0,0.0,82,0.00,,CLR,0.00,VWS V14.01,2013-02-16 01:25:00,
2013-02-15 17:30:00,46.5,41.3,30.27,NNE,22,0.0,0.0,82,0.00,,CLR,0.00,VWS V14.01,2013-02-16 01:30:00,
2013-02-15 17:35:00,46.2,41.0,30.27,NNE,22,0.0,0.0,82,0.00,,CLR,0.00,VWS V14.01,2013-02-16 01:35:00,
2013-02-15 17:40:00,46.2,41.3,30.27,NNE,22,0.0,0.0,83,0.00,,CLR,0.00,VWS V14.01,2013-02-16 01:40:00,
2013-02-15 17:45:00,45.8,40.9,30.27,NNE,22,0.0,0.0,83,0.00,,CLR,0.00,VWS V14.01,2013-02-16 01:45:00,
2013-02-15 17:50:00,45.6,40.7,30.26,NNE,22,0.0,0.0,83,0.00,,CLR,0.00,VWS V14.01,2013-02-16 01:50:00,
2013-02-15 17:55:00,45.3,40.5,30.26,NNE,22,0.0,0.0,83,0.00,,CLR,0.00,VWS V14.01,2013-02-16 01:55:00,
2013-02-15 18:00:00,44.9,40.1,30.26,NNE,22,0.0,0.0,83,0.00,,CLR,0.00,VWS V14.01,2013-02-16 02:00:00,
2013-02-15 18:05:00,44.9,40.4,30.26,NNE,22,0.0,0.0,84,0.00,,CLR,0.00,VWS V14.01,2013-02-16 02:05:00,
2013-02-15 18:10:00,44.6,40.1,30.26,NNE,22,0.0,0.0,84,0.00,,CLR,0.00,VWS V14.01,2013-02-16 02:10:00,
2013-02-15 18:15:00,44.4,39.9,30.25,NNE,22,0.0,0.0,84,0.00,,CLR,0.00,VWS V14.01,2013-02-16 02:15:00,
2013-02-15 18:20:00,44.2,39.7,30.25,NNE,22,0.0,0.0,84,0.00,,CLR,0.00,VWS V14.01,2013-02-16 02:20:00,
2013-02-15 18:25:00,43.8,39.6,30.25,NNE,22,0.0,0.0,85,0.00,,CLR,0.00,VWS V14.01,2013-02-16 02:25:00,
2013-02-15 18:30:00,43.7,39.5,30.25,NNE,22,0.0,0.0,85,0.00,,CLR,0.00,VWS V14.01,2013-02-16 02:30:00,
2013-02-15 18:35:00,43.5,39.3,30.25,NNE,22,0.0,0.0,85,0.00,,CLR,0.00,VWS V14.01,2013-02-16 02:35:00,
2013-02-15 18:40:00,43.3,39.1,30.25,NNE,22,0.0,0.0,85,0.00,,CLR,0.00,VWS V14.01,2013-02-16 02:40:00,
2013-02-15 18:45:00,42.9,38.7,30.25,NNE,22,0.0,0.0,85,0.00,,CLR,0.00,VWS V14.01,2013-02-16 02:45:00,
2013-02-15 18:50:00,42.9,38.7,30.25,NNE,22,0.0,0.0,85,0.00,,CLR,0.00,VWS V14.01,2013-02-16 02:50:00,
2013-02-15 18:55:00,42.6,38.4,30.25,NNE,22,0.0,0.0,85,0.00,,CLR,0.00,VWS V14.01,2013-02-16 02:55:00,
2013-02-15 19:00:00,42.6,38.7,30.25,NNE,22,0.0,0.0,86,0.00,,CLR,0.00,VWS V14.01,2013-02-16 03:00:00,
2013-02-15 19:05:00,42.4,38.5,30.25,NNE,22,0.0,0.0,86,0.00,,CLR,0.00,VWS V14.01,2013-02-16 03:05:00,
2013-02-15 19:10:00,42.4,38.5,30.25,NNE,22,0.0,0.0,86,0.00,,CLR,0.00,VWS V14.01,2013-02-16 03:10:00,
2013-02-15 19:15:00,42.0,38.1,30.25,NNE,22,0.0,0.0,86,0.00,,CLR,0.00,VWS V14.01,2013-02-16 03:15:00,
2013-02-15 19:20:00,42.0,38.1,30.25,NNE,22,0.0,0.0,86,0.00,,CLR,0.00,VWS V14.01,2013-02-16 03:20:00,
2013-02-15 19:25:00,42.0,38.1,30.25,NNE,22,0.0,0.0,86,0.00,,CLR,0.00,VWS V14.01,2013-02-16 03:25:00,
2013-02-15 19:30:00,41.7,37.8,30.25,NNE,22,0.0,0.0,86,0.00,,CLR,0.00,VWS V14.01,2013-02-16 03:30:00,
2013-02-15 19:35:00,41.7,37.8,30.24,NNE,22,0.0,0.0,86,0.00,,CLR,0.00,VWS V14.01,2013-02-16 03:35:00,
2013-02-15 19:40:00,41.5,37.9,30.24,NNE,22,0.0,0.0,87,0.00,,CLR,0.00,VWS V14.01,2013-02-16 03:40:00,
2013-02-15 19:45:00,41.3,37.7,30.24,NNE,22,0.0,0.0,87,0.00,,CLR,0.00,VWS V14.01,2013-02-16 03:45:00,
2013-02-15 19:50:00,41.3,37.7,30.24,NNE,22,0.0,0.0,87,0.00,,CLR,0.00,VWS V14.01,2013-02-16 03:50:00,
2013-02-15 19:55:00,41.1,37.5,30.24,NNE,22,0.0,0.0,87,0.00,,CLR,0.00,VWS V14.01,2013-02-16 03:55:00,
2013-02-15 20:00:00,41.0,37.4,30.24,NNE,22,0.0,0.0,87,0.00,,CLR,0.00,VWS V14.01,2013-02-16 04:00:00,
2013-02-15 20:05:00,40.8,37.2,30.24,NNE,22,0.0,0.0,87,0.00,,CLR,0.00,VWS V14.01,2013-02-16 04:05:00,
2013-02-15 20:10:00,40.8,37.2,30.24,NNE,22,0.0,0.0,87,0.00,,CLR,0.00,VWS V14.01,2013-02-16 04:10:00,
2013-02-15 20:15:00,40.6,37.0,30.24,NNE,22,0.0,0.0,87,0.00,,CLR,0.00,VWS V14.01,2013-02-16 04:15:00,
2013-02-15 20:20:00,40.4,36.8,30.24,NNE,22,0.0,0.0,87,0.00,,CLR,0.00,VWS V14.01,2013-02-16 04:20:00,
2013-02-15 20:25:00,40.2,36.9,30.24,NNE,22,0.0,0.0,88,0.00,,CLR,0.00,VWS V14.01,2013-02-16 04:25:00,
2013-02-15 20:30:00,40.1,36.8,30.24,NNE,22,0.0,0.0,88,0.00,,CLR,0.00,VWS V14.01,2013-02-16 04:30:00,
2013-02-15 20:35:00,39.9,36.6,30.24,NNE,22,0.0,0.0,88,0.00,,CLR,0.00,VWS V14.01,2013-02-16 04:35:00,
2013-02-15 20:40:00,39.9,36.6,30.24,NNE,22,0.0,0.0,88,0.00,,CLR,0.00,VWS V14.01,2013-02-16 04:40:00,
2013-02-15 20:45:00,39.7,36.4,30.24,NNE,22,0.0,0.0,88,0.00,,CLR,0.00,VWS V14.01,2013-02-16 04:45:00,
2013-02-15 20:50:00,39.5,36.2,30.24,NNE,22,0.0,0.0,88,0.00,,CLR,0.00,VWS V14.01,2013-02-16 04:50:00,
2013-02-15 20:55:00,39.3,36.0,30.24,NNE,22,0.0,0.0,88,0.00,,CLR,0.00,VWS V14.01,2013-02-16 04:55:00,
2013-02-15 21:00:00,39.3,36.0,30.24,NNE,22,0.0,0.0,88,0.00,,CLR,0.00,VWS V14.01,2013-02-16 05:00:00,
2013-02-15 21:02:00,39.0,35.8,30.24,NNE,22,0.0,0.0,88,0.00,,CLR,0.00,VWS V14.01,2013-02-16 05:02:00,
2013-02-15 21:04:00,39.0,35.8,30.24,NNE,22,0.0,0.0,88,0.00,,CLR,0.00,VWS V14.01,2013-02-16 05:04:00,
2013-02-15 21:09:00,39.0,35.8,30.24,NNE,22,0.0,0.0,88,0.00,,CLR,0.00,VWS V14.01,2013-02-16 05:09:00,
2013-02-15 21:14:00,38.8,35.6,30.24,NNE,22,0.0,0.0,88,0.00,,CLR,0.00,VWS V14.01,2013-02-16 05:14:00,
2013-02-15 21:19:00,38.8,35.6,30.24,NNE,22,0.0,0.0,88,0.00,,CLR,0.00,VWS V14.01,2013-02-16 05:19:00,
2013-02-15 21:23:00,38.8,35.6,30.24,NNE,22,0.0,0.0,88,0.00,,CLR,0.00,VWS V14.01,2013-02-16 05:23:00,
2013-02-15 21:28:00,38.4,35.2,30.24,NNE,22,0.0,0.0,88,0.00,,CLR,0.00,VWS V14.01,2013-02-16 05:28:00,
2013-02-15 21:33:00,38.4,35.2,30.24,NNE,22,0.0,0.0,88,0.00,,CLR,0.00,VWS V14.01,2013-02-16 05:33:00,
2013-02-15 21:38:00,38.3,35.1,30.24,NNE,22,0.0,0.0,88,0.00,,CLR,0.00,VWS V14.01,2013-02-16 05:38:00,
2013-02-15 21:44:00,38.1,34.9,30.24,NNE,22,0.0,0.0,88,0.00,,CLR,0.00,VWS V14.01,2013-02-16 05:44:00,
2013-02-15 21:49:00,38.1,34.9,30.24,NNE,22,0.0,0.0,88,0.00,,CLR,0.00,VWS V14.01,2013-02-16 05:49:00,
2013-02-15 21:54:00,37.9,34.7,30.23,NNE,22,0.0,0.0,88,0.00,,CLR,0.00,VWS V14.01,2013-02-16 05:54:00,
2013-02-15 21:59:00,37.9,35.0,30.23,NNE,22,0.0,0.0,89,0.00,,CLR,0.00,VWS V14.01,2013-02-16 05:59:00,
2013-02-15 22:04:00,37.9,35.0,30.23,NNE,22,0.0,0.0,89,0.00,,CLR,0.00,VWS V14.01,2013-02-16 06:04:00,
2013-02-15 22:09:00,37.7,34.8,30.23,NNE,22,0.0,0.0,89,0.00,,CLR,0.00,VWS V14.01,2013-02-16 06:09:00,
2013-02-15 22:14:00,37.7,34.8,30.24,NNE,22,0.0,0.0,89,0.00,,CLR,0.00,VWS V14.01,2013-02-16 06:14:00,
2013-02-15 22:19:00,37.7,34.8,30.23,NNE,22,0.0,0.0,89,0.00,,CLR,0.00,VWS V14.01,2013-02-16 06:19:00,
2013-02-15 22:24:00,37.5,34.6,30.23,NNE,22,0.0,0.0,89,0.00,,CLR,0.00,VWS V14.01,2013-02-16 06:24:00,
2013-02-15 22:29:00,37.5,34.6,30.23,NNE,22,0.0,0.0,89,0.00,,CLR,0.00,VWS V14.01,2013-02-16 06:29:00,
2013-02-15 22:34:00,37.2,34.3,30.23,NNE,22,0.0,0.0,89,0.00,,CLR,0.00,VWS V14.01,2013-02-16 06:34:00,
2013-02-15 22:39:00,37.2,34.3,30.22,NNE,22,0.0,0.0,89,0.00,,CLR,0.00,VWS V14.01,2013-02-16 06:39:00,
2013-02-15 22:44:00,37.2,34.3,30.22,NNE,22,0.0,0.0,89,0.00,,CLR,0.00,VWS V14.01,2013-02-16 06:44:00,
2013-02-15 22:49:00,37.0,34.1,30.22,NNE,22,0.0,0.0,89,0.00,,CLR,0.00,VWS V14.01,2013-02-16 06:49:00,
2013-02-15 22:54:00,36.8,33.9,30.22,NNE,22,0.0,0.0,89,0.00,,CLR,0.00,VWS V14.01,2013-02-16 06:54:00,
2013-02-15 22:59:00,36.8,33.9,30.22,NNE,22,0.0,0.0,89,0.00,,CLR,0.00,VWS V14.01,2013-02-16 06:59:00,
2013-02-15 23:04:00,36.6,33.7,30.21,NNE,22,0.0,0.0,89,0.00,,CLR,0.00,VWS V14.01,2013-02-16 07:04:00,
2013-02-15 23:09:00,36.5,33.6,30.21,NNE,22,0.0,0.0,89,0.00,,CLR,0.00,VWS V14.01,2013-02-16 07:09:00,
2013-02-15 23:14:00,36.5,33.6,30.21,NNE,22,0.0,0.0,89,0.00,,CLR,0.00,VWS V14.01,2013-02-16 07:14:00,
2013-02-15 23:19:00,36.3,33.4,30.21,NNE,22,0.0,0.0,89,0.00,,CLR,0.00,VWS V14.01,2013-02-16 07:19:00,
2013-02-15 23:24:00,36.3,33.4,30.21,NNE,22,0.0,0.0,89,0.00,,CLR,0.00,VWS V14.01,2013-02-16 07:24:00,
2013-02-15 23:30:00,36.3,33.4,30.21,NNE,22,0.0,0.0,89,0.00,,CLR,0.00,VWS V14.01,2013-02-16 07:30:00,
2013-02-15 23:35:00,36.1,33.2,30.20,NNE,22,0.0,0.0,89,0.00,,CLR,0.00,VWS V14.01,2013-02-16 07:35:00,
2013-02-15 23:40:00,35.9,33.0,30.20,NNE,22,0.0,0.0,89,0.00,,CLR,0.00,VWS V14.01,2013-02-16 07:40:00,
2013-02-15 23:45:00,35.9,33.0,30.20,NNE,22,0.0,0.0,89,0.00,,CLR,0.00,VWS V14.01,2013-02-16 07:45:00,
2013-02-15 23:50:00,35.7,32.8,30.20,NNE,22,0.0,0.0,89,0.00,,CLR,0.00,VWS V14.01,2013-02-16 07:50:00,
2013-02-15 23:55:00,35.7,32.8,30.19,NNE,22,0.0,0.0,89,0.00,,CLR,0.00,VWS V14.01,2013-02-16 07:55:00,